createdAt,value
2023-04-02T00:01:52.051Z,4.50
2023-04-02T00:04:22.646Z,4.40
2023-04-02T00:06:54.096Z,4.30
2023-04-02T00:09:23.217Z,4.30
2023-04-02T00:11:54.602Z,4.30
2023-04-02T00:14:23.954Z,4.20
2023-04-02T00:16:51.410Z,4.20
2023-04-02T00:19:22.626Z,4.20
2023-04-02T00:21:49.853Z,4.20
2023-04-02T00:24:19.304Z,4.20
2023-04-02T00:26:47.083Z,4.10
2023-04-02T00:29:14.804Z,4.10
2023-04-02T00:31:43.235Z,4.10
2023-04-02T00:34:15.988Z,4.10
2023-04-02T00:36:44.023Z,4.10
2023-04-02T00:39:15.636Z,4.10
2023-04-02T00:41:46.655Z,4.10
2023-04-02T00:44:14.519Z,4.10
2023-04-02T00:46:47.180Z,4.00
2023-04-02T00:49:32.585Z,4.00
2023-04-02T00:52:01.757Z,3.90
2023-04-02T00:54:31.172Z,3.90
2023-04-02T00:56:58.440Z,3.80
2023-04-02T00:59:27.914Z,3.90
2023-04-02T01:02:01.567Z,4.00
2023-04-02T01:04:32.545Z,3.80
2023-04-02T01:06:59.750Z,3.90
2023-04-02T01:09:38.623Z,3.80
2023-04-02T01:12:24.844Z,3.80
2023-04-02T01:14:51.424Z,3.70
2023-04-02T01:17:21.145Z,3.70
2023-04-02T01:20:15.895Z,3.70
2023-04-02T01:22:51.783Z,3.70
2023-04-02T01:25:28.406Z,3.70
2023-04-02T01:27:59.099Z,3.70
2023-04-02T01:30:26.213Z,3.70
2023-04-02T01:32:53.372Z,3.70
2023-04-02T01:35:21.133Z,3.70
2023-04-02T01:38:07.399Z,3.70
2023-04-02T01:40:46.141Z,3.70
2023-04-02T01:43:19.063Z,3.60
2023-04-02T01:45:45.742Z,3.60
2023-04-02T01:48:19.763Z,3.60
2023-04-02T01:50:48.284Z,3.50
2023-04-02T01:53:16.093Z,3.60
2023-04-02T01:55:48.671Z,3.50
2023-04-02T01:58:19.494Z,3.50
2023-04-02T02:00:52.028Z,3.50
2023-04-02T02:03:20.007Z,3.50
2023-04-02T02:05:46.846Z,3.40
2023-04-02T02:08:38.174Z,3.50
2023-04-02T02:11:06.648Z,3.50
2023-04-02T02:13:33.487Z,3.50
2023-04-02T02:16:00.930Z,3.50
2023-04-02T02:18:28.176Z,3.50
2023-04-02T02:20:57.086Z,3.40
2023-04-02T02:23:23.823Z,3.40
2023-04-02T02:25:50.426Z,3.40
2023-04-02T02:28:40.151Z,3.40
2023-04-02T02:31:09.253Z,3.40
2023-04-02T02:33:42.980Z,3.40
2023-04-02T02:36:24.717Z,3.40
2023-04-02T02:39:00.898Z,3.30
2023-04-02T02:41:42.535Z,3.30
2023-04-02T02:44:09.748Z,3.30
2023-04-02T02:46:43.528Z,3.30
2023-04-02T02:49:19.807Z,3.30
2023-04-02T02:51:49.096Z,3.30
2023-04-02T02:54:20.851Z,3.30
2023-04-02T02:56:51.005Z,3.20
2023-04-02T02:59:19.138Z,3.20
2023-04-02T03:01:47.333Z,3.20
2023-04-02T03:04:22.456Z,3.20
2023-04-02T03:06:52.711Z,3.10
2023-04-02T03:09:36.381Z,3.10
2023-04-02T03:12:12.605Z,3.10
2023-04-02T03:14:48.857Z,3.10
2023-04-02T03:17:21.365Z,3.10
2023-04-02T03:19:52.503Z,3.10
2023-04-02T03:22:23.393Z,3.10
2023-04-02T03:24:56.256Z,3.00
2023-04-02T03:27:32.749Z,3.00
2023-04-02T03:30:18.720Z,3.00
2023-04-02T03:32:47.091Z,2.90
2023-04-02T03:35:20.977Z,3.00
2023-04-02T03:38:10.970Z,3.00
2023-04-02T03:40:55.383Z,2.90
2023-04-02T03:43:24.113Z,2.90
2023-04-02T03:45:55.634Z,2.80
2023-04-02T03:48:27.113Z,2.80
2023-04-02T03:50:56.760Z,2.80
2023-04-02T03:53:25.097Z,2.80
2023-04-02T03:55:52.330Z,2.80
2023-04-02T03:58:18.989Z,2.90
2023-04-02T04:00:52.332Z,2.80
2023-04-02T04:03:39.214Z,2.80
2023-04-02T04:06:07.939Z,2.80
2023-04-02T04:08:42.385Z,2.80
2023-04-02T04:11:10.974Z,2.80
2023-04-02T04:13:45.712Z,2.90
2023-04-02T04:16:16.461Z,2.90
2023-04-02T04:18:57.070Z,2.80
2023-04-02T04:21:37.584Z,2.90
2023-04-02T04:24:17.440Z,2.80
2023-04-02T04:26:49.488Z,2.80
2023-04-02T04:29:31.796Z,2.90
2023-04-02T04:32:08.788Z,2.90
2023-04-02T04:34:46.539Z,2.90
2023-04-02T04:37:25.110Z,2.90
2023-04-02T04:39:58.693Z,2.90
2023-04-02T04:42:28.313Z,2.90
2023-04-02T04:44:55.958Z,2.90
2023-04-02T04:47:30.900Z,2.90
2023-04-02T04:50:03.294Z,2.90
2023-04-02T04:52:37.295Z,2.90
2023-04-02T04:55:20.850Z,2.90
2023-04-02T04:57:48.450Z,2.80
2023-04-02T05:00:15.657Z,2.90
2023-04-02T05:03:06.835Z,2.90
2023-04-02T05:05:36.629Z,2.80
2023-04-02T05:08:09.664Z,2.90
2023-04-02T05:10:40.940Z,2.80
2023-04-02T05:13:16.574Z,2.90
2023-04-02T05:15:50.589Z,2.90
2023-04-02T05:18:31.429Z,2.80
2023-04-02T05:21:03.904Z,2.80
2023-04-02T05:23:35.414Z,2.80
2023-04-02T05:26:02.192Z,2.80
2023-04-02T05:28:34.583Z,2.90
2023-04-02T05:31:04.298Z,2.80
2023-04-02T05:33:36.534Z,2.80
2023-04-02T05:36:11.724Z,2.90
2023-04-02T05:38:48.051Z,2.80
2023-04-02T05:41:31.467Z,2.80
2023-04-02T05:44:05.884Z,2.80
2023-04-02T05:46:37.838Z,2.80
2023-04-02T05:49:07.935Z,2.90
2023-04-02T05:51:45.428Z,2.90
2023-04-02T05:54:23.300Z,2.90
2023-04-02T05:57:03.429Z,2.90
2023-04-02T05:59:37.180Z,2.90
2023-04-02T06:02:07.331Z,2.90
2023-04-02T06:04:56.576Z,2.90
2023-04-02T06:07:29.244Z,3.00
2023-04-02T06:10:25.022Z,3.00
2023-04-02T06:13:03.441Z,2.90
2023-04-02T06:15:35.047Z,2.90
2023-04-02T06:18:30.237Z,2.90
2023-04-02T06:20:57.534Z,3.00
2023-04-02T06:23:24.720Z,3.00
2023-04-02T06:26:01.115Z,2.90
2023-04-02T06:28:34.621Z,3.00
2023-04-02T06:31:05.595Z,3.00
2023-04-02T06:33:36.735Z,3.10
2023-04-02T06:36:04.586Z,3.10
2023-04-02T06:38:34.332Z,3.10
2023-04-02T06:41:04.882Z,3.10
2023-04-02T06:43:46.462Z,3.20
2023-04-02T06:46:51.801Z,3.20
2023-04-02T06:49:28.286Z,3.30
2023-04-02T06:52:00.749Z,3.20
2023-04-02T06:54:28.504Z,3.20
2023-04-02T06:56:59.909Z,3.30
2023-04-02T06:59:33.309Z,3.30
2023-04-02T07:02:04.287Z,3.30
2023-04-02T07:04:31.477Z,3.30
2023-04-02T07:06:58.256Z,3.20
2023-04-02T07:09:28.249Z,3.40
2023-04-02T07:11:58.072Z,3.40
2023-04-02T07:14:24.662Z,3.40
2023-04-02T07:16:51.467Z,3.30
2023-04-02T07:19:19.962Z,3.30
2023-04-02T07:21:47.822Z,3.40
2023-04-02T07:24:14.827Z,3.40
2023-04-02T07:26:41.820Z,3.30
2023-04-02T07:29:08.996Z,3.20
2023-04-02T07:31:38.013Z,3.30
2023-04-02T07:34:06.568Z,3.40
2023-04-02T07:36:33.436Z,3.30
2023-04-02T07:39:00.047Z,3.40
2023-04-02T07:41:27.501Z,3.50
2023-04-02T07:43:54.281Z,3.40
2023-04-02T07:46:21.011Z,3.60
2023-04-02T07:48:47.849Z,3.50
2023-04-02T07:51:21.816Z,3.50
2023-04-02T07:53:51.110Z,3.50
2023-04-02T07:56:19.171Z,3.40
2023-04-02T07:58:45.888Z,3.40
2023-04-02T08:01:16.699Z,3.50
2023-04-02T08:03:43.417Z,3.70
2023-04-02T08:06:10.073Z,3.70
2023-04-02T08:08:36.722Z,3.70
2023-04-02T08:11:03.361Z,3.70
2023-04-02T08:13:31.955Z,3.80
2023-04-02T08:15:59.114Z,3.70
2023-04-02T08:18:25.952Z,3.80
2023-04-02T08:20:55.949Z,3.80
2023-04-02T08:23:23.218Z,4.10
2023-04-02T08:25:50.526Z,4.10
2023-04-02T08:28:17.598Z,4.10
2023-04-02T08:30:44.338Z,4.20
2023-04-02T08:33:11.426Z,4.30
2023-04-02T08:35:38.626Z,4.40
2023-04-02T08:38:05.765Z,4.40
2023-04-02T08:40:36.620Z,4.40
2023-04-02T08:43:06.334Z,4.20
2023-04-02T08:45:37.987Z,4.30
2023-04-02T08:48:06.359Z,4.30
2023-04-02T08:50:37.394Z,4.30
2023-04-02T08:53:06.266Z,4.30
2023-04-02T08:55:35.871Z,4.50
2023-04-02T08:58:02.810Z,4.40
2023-04-02T09:00:38.983Z,4.20
2023-04-02T09:03:08.850Z,4.40
2023-04-02T09:05:39.095Z,4.50
2023-04-02T09:08:15.245Z,4.60
2023-04-02T09:10:50.558Z,4.80
2023-04-02T09:13:23.732Z,4.70
2023-04-02T09:15:53.304Z,4.80
2023-04-02T09:18:20.317Z,4.70
2023-04-02T09:20:49.242Z,4.70
2023-04-02T09:23:18.253Z,4.80
2023-04-02T09:25:57.323Z,4.80
2023-04-02T09:28:27.891Z,4.80
2023-04-02T09:31:16.236Z,4.80
2023-04-02T09:33:44.846Z,4.80
2023-04-02T09:36:34.031Z,4.80
2023-04-02T09:39:16.978Z,4.70
2023-04-02T09:41:46.310Z,4.90
2023-04-02T09:44:22.939Z,4.80
2023-04-02T09:47:03.352Z,4.80
2023-04-02T09:49:36.808Z,4.70
2023-04-02T09:52:06.527Z,4.80
2023-04-02T09:54:33.258Z,5.00
2023-04-02T09:57:01.359Z,5.00
2023-04-02T09:59:28.391Z,5.00
2023-04-02T10:01:54.916Z,5.10
2023-04-02T10:04:34.755Z,5.10
2023-04-02T10:07:03.102Z,5.00
2023-04-02T10:09:31.179Z,5.20
2023-04-02T10:11:58.860Z,5.20
2023-04-02T10:14:30.333Z,5.40
2023-04-02T10:16:59.545Z,5.40
2023-04-02T10:19:40.332Z,5.50
2023-04-02T10:22:13.557Z,5.40
2023-04-02T10:24:40.626Z,5.30
2023-04-02T10:27:25.670Z,5.30
2023-04-02T10:29:52.273Z,5.20
2023-04-02T10:32:21.353Z,5.40
2023-04-02T10:34:55.554Z,5.40
2023-04-02T10:37:48.844Z,5.50
2023-04-02T10:40:21.829Z,5.50
2023-04-02T10:42:54.674Z,5.50
2023-04-02T10:45:30.453Z,5.40
2023-04-02T10:47:57.203Z,5.70
2023-04-02T10:50:31.865Z,5.70
2023-04-02T10:53:20.289Z,5.50
2023-04-02T10:55:55.242Z,5.50
2023-04-02T10:58:26.184Z,5.80
2023-04-02T11:00:55.171Z,5.90
2023-04-02T11:03:44.544Z,5.90
2023-04-02T11:06:37.385Z,5.90
2023-04-02T11:09:06.151Z,6.10
2023-04-02T11:11:36.604Z,6.40
2023-04-02T11:14:05.395Z,6.20
2023-04-02T11:16:33.045Z,6.20
2023-04-02T11:19:09.148Z,6.40
2023-04-02T11:21:55.060Z,6.80
2023-04-02T11:24:32.484Z,6.90
2023-04-02T11:27:11.394Z,7.00
2023-04-02T11:29:39.024Z,7.00
2023-04-02T11:32:26.941Z,7.10
2023-04-02T11:35:06.727Z,7.20
2023-04-02T11:37:35.496Z,7.10
2023-04-02T11:40:22.298Z,7.20
2023-04-02T11:42:50.325Z,7.40
2023-04-02T11:45:20.911Z,6.90
2023-04-02T11:48:00.560Z,7.00
2023-04-02T11:50:27.506Z,7.30
2023-04-02T11:52:54.911Z,7.10
2023-04-02T11:55:24.277Z,7.50
2023-04-02T11:57:56.072Z,7.20
2023-04-02T12:00:28.825Z,7.80
2023-04-02T12:03:14.296Z,7.90
2023-04-02T12:05:46.479Z,7.70
2023-04-02T12:08:25.754Z,8.70
2023-04-02T12:10:54.304Z,8.80
2023-04-02T12:13:21.836Z,8.80
2023-04-02T12:15:49.207Z,8.40
2023-04-02T12:18:17.404Z,7.90
2023-04-02T12:20:48.480Z,8.00
2023-04-02T12:23:18.079Z,8.20
2023-04-02T12:25:46.629Z,7.20
2023-04-02T12:28:20.530Z,7.80
2023-04-02T12:30:47.768Z,8.20
2023-04-02T12:33:26.437Z,8.80
2023-04-02T12:35:55.579Z,9.20
2023-04-02T12:38:27.378Z,9.00
2023-04-02T12:40:55.495Z,8.70
2023-04-02T12:43:26.308Z,9.40
2023-04-02T12:45:57.725Z,9.10
2023-04-02T12:48:24.883Z,8.40
2023-04-02T12:50:51.737Z,8.00
2023-04-02T12:53:38.577Z,8.00
2023-04-02T12:56:05.934Z,8.30
2023-04-02T12:58:37.201Z,8.40
2023-04-02T13:01:11.986Z,8.70
2023-04-02T13:03:38.632Z,9.80
2023-04-02T13:06:18.219Z,10.20
2023-04-02T13:08:44.775Z,10.00
2023-04-02T13:11:11.735Z,11.00
2023-04-02T13:13:39.418Z,9.40
2023-04-02T13:16:07.745Z,9.20
2023-04-02T13:18:36.259Z,10.50
2023-04-02T13:21:04.164Z,9.90
2023-04-02T13:23:30.833Z,9.80
2023-04-02T13:26:01.770Z,10.30
2023-04-02T13:28:28.632Z,9.70
2023-04-02T13:30:55.431Z,10.10
2023-04-02T13:33:22.394Z,10.70
2023-04-02T13:35:48.996Z,11.10
2023-04-02T13:38:15.796Z,10.70
2023-04-02T13:40:42.516Z,10.50
2023-04-02T13:43:15.433Z,10.40
2023-04-02T13:45:42.583Z,10.40
2023-04-02T13:48:13.233Z,11.10
2023-04-02T13:50:40.009Z,10.00
2023-04-02T13:53:09.822Z,10.70
2023-04-02T13:55:39.690Z,11.40
2023-04-02T13:58:07.118Z,12.40
2023-04-02T14:00:35.940Z,12.40
2023-04-02T14:03:11.790Z,12.40
2023-04-02T14:05:38.672Z,10.90
2023-04-02T14:08:09.243Z,11.30
2023-04-02T14:10:50.497Z,11.30
2023-04-02T14:13:26.680Z,10.90
2023-04-02T14:16:06.973Z,11.00
2023-04-02T14:18:41.085Z,12.40
2023-04-02T14:21:10.782Z,11.90
2023-04-02T14:23:43.549Z,12.10
2023-04-02T14:26:16.774Z,12.00
2023-04-02T14:28:57.245Z,10.70
2023-04-02T14:31:44.106Z,11.60
2023-04-02T14:34:23.082Z,11.30
2023-04-02T14:37:13.165Z,11.30
2023-04-02T14:39:59.149Z,11.20
2023-04-02T14:42:25.929Z,11.10
2023-04-02T14:45:00.561Z,11.50
2023-04-02T14:47:37.159Z,10.80
2023-04-02T14:50:15.438Z,11.90
2023-04-02T14:52:45.483Z,11.80
2023-04-02T14:55:32.732Z,10.60
2023-04-02T14:58:01.437Z,10.00
2023-04-02T15:00:32.938Z,9.30
2023-04-02T15:03:09.448Z,9.60
2023-04-02T15:05:42.146Z,9.70
2023-04-02T15:08:52.359Z,9.90
2023-04-02T15:11:29.765Z,10.00
2023-04-02T15:13:59.299Z,10.40
2023-04-02T15:16:26.811Z,10.50
2023-04-02T15:18:56.149Z,11.20
2023-04-02T15:21:23.090Z,11.20
2023-04-02T15:23:56.024Z,11.30
2023-04-02T15:26:29.020Z,12.30
2023-04-02T15:29:03.909Z,12.50
2023-04-02T15:31:31.139Z,12.00
2023-04-02T15:34:06.489Z,11.00
2023-04-02T15:36:42.187Z,10.80
2023-04-02T15:39:23.790Z,10.80
2023-04-02T15:42:02.056Z,10.40
2023-04-02T15:44:28.652Z,10.70
2023-04-02T15:47:14.126Z,10.60
2023-04-02T15:50:01.863Z,10.40
2023-04-02T15:52:37.176Z,10.10
2023-04-02T15:55:10.038Z,9.80
2023-04-02T15:57:46.063Z,9.90
2023-04-02T16:00:19.532Z,10.60
2023-04-02T16:03:02.680Z,11.10
2023-04-02T16:05:32.501Z,12.30
2023-04-02T16:08:12.203Z,11.40
2023-04-02T16:10:42.321Z,11.30
2023-04-02T16:13:15.764Z,11.00
2023-04-02T16:15:46.300Z,11.40
2023-04-02T16:18:20.807Z,11.10
2023-04-02T16:20:49.636Z,10.40
2023-04-02T16:23:18.682Z,9.80
2023-04-02T16:25:53.537Z,9.60
2023-04-02T16:28:33.272Z,9.50
2023-04-02T16:31:02.925Z,9.30
2023-04-02T16:33:36.809Z,9.00
2023-04-02T16:36:08.714Z,9.20
2023-04-02T16:38:54.115Z,9.50
2023-04-02T16:41:42.224Z,9.60
2023-04-02T16:44:11.553Z,9.80
2023-04-02T16:46:40.370Z,9.70
2023-04-02T16:49:15.792Z,9.70
2023-04-02T16:51:51.222Z,9.80
2023-04-02T16:54:29.746Z,10.10
2023-04-02T16:57:20.269Z,10.10
2023-04-02T17:00:06.291Z,10.00
2023-04-02T17:02:52.380Z,9.50
2023-04-02T17:05:42.798Z,9.10
2023-04-02T17:08:45.120Z,8.90
2023-04-02T17:11:34.665Z,8.80
2023-04-02T17:14:08.081Z,8.70
2023-04-02T17:16:44.788Z,8.70
2023-04-02T17:19:13.509Z,8.70
2023-04-02T17:21:42.252Z,8.80
2023-04-02T17:24:23.232Z,8.70
2023-04-02T17:27:00.687Z,8.80
2023-04-02T17:29:32.253Z,8.70
2023-04-02T17:32:01.516Z,8.80
2023-04-02T17:34:29.116Z,8.60
2023-04-02T17:37:02.793Z,8.50
2023-04-02T17:39:36.419Z,8.70
2023-04-02T17:42:26.321Z,8.50
2023-04-02T17:44:54.255Z,8.40
2023-04-02T17:47:23.079Z,8.40
2023-04-02T17:49:53.262Z,8.30
2023-04-02T17:52:19.847Z,8.10
2023-04-02T17:54:52.137Z,8.00
2023-04-02T17:57:31.732Z,8.00
2023-04-02T18:00:10.504Z,7.90
2023-04-02T18:03:03.222Z,7.80
2023-04-02T18:05:38.747Z,7.80
2023-04-02T18:08:08.291Z,7.80
2023-04-02T18:10:35.185Z,7.80
2023-04-02T18:13:07.542Z,7.90
2023-04-02T18:15:42.280Z,7.80
2023-04-02T18:18:27.434Z,7.80
2023-04-02T18:20:54.776Z,7.90
2023-04-02T18:23:32.179Z,7.90
2023-04-02T18:26:05.602Z,7.80
2023-04-02T18:29:54.339Z,7.90
2023-04-02T18:32:34.168Z,7.80
2023-04-02T18:35:19.688Z,7.80
2023-04-02T18:38:06.582Z,7.80
2023-04-02T18:40:53.164Z,7.80
2023-04-02T18:43:20.616Z,7.80
2023-04-02T18:46:05.753Z,7.90
2023-04-02T18:48:45.883Z,7.80
2023-04-02T18:51:14.828Z,7.80
2023-04-02T18:53:42.168Z,7.80
2023-04-02T18:56:12.689Z,7.80
2023-04-02T18:58:49.425Z,7.70
2023-04-02T19:01:22.192Z,7.70
2023-04-02T19:03:51.361Z,7.60
2023-04-02T19:06:23.418Z,7.70
2023-04-02T19:08:51.277Z,7.70
2023-04-02T19:11:20.310Z,7.70
2023-04-02T19:13:48.925Z,7.60
2023-04-02T19:16:34.316Z,7.50
2023-04-02T19:19:11.365Z,7.50
2023-04-02T19:21:56.542Z,7.50
2023-04-02T19:24:26.150Z,7.50
2023-04-02T19:27:12.171Z,7.50
2023-04-02T19:29:41.760Z,7.40
2023-04-02T19:32:27.282Z,7.40
2023-04-02T19:35:01.088Z,7.30
2023-04-02T19:37:33.960Z,7.30
2023-04-02T19:40:13.069Z,7.20
2023-04-02T19:42:50.245Z,7.20
2023-04-02T19:45:19.873Z,7.10
2023-04-02T19:47:46.504Z,7.10
2023-04-02T19:50:13.215Z,7.00
2023-04-02T19:52:39.778Z,7.00
2023-04-02T19:55:06.701Z,6.80
2023-04-02T19:57:33.688Z,6.80
2023-04-02T20:00:00.458Z,6.80
2023-04-02T20:02:27.232Z,6.70
2023-04-02T20:04:53.856Z,6.70
2023-04-02T20:07:20.708Z,6.60
2023-04-02T20:09:47.342Z,6.60
2023-04-02T20:12:13.914Z,6.50
2023-04-02T20:14:41.232Z,6.40
2023-04-02T20:17:08.191Z,6.40
2023-04-02T20:19:35.704Z,6.30
2023-04-02T20:22:02.342Z,6.20
2023-04-02T20:24:28.960Z,6.10
2023-04-02T20:26:55.772Z,6.10
2023-04-02T20:29:24.431Z,6.00
2023-04-02T20:31:51.043Z,6.00
2023-04-02T20:34:17.728Z,5.90
2023-04-02T20:36:45.544Z,5.90
2023-04-02T20:39:17.951Z,5.80
2023-04-02T20:41:45.359Z,5.80
2023-04-02T20:44:12.922Z,5.70
2023-04-02T20:46:39.955Z,5.60
2023-04-02T20:49:06.837Z,5.60
2023-04-02T20:51:34.583Z,5.50
2023-04-02T20:54:01.351Z,5.50
2023-04-02T20:56:27.973Z,5.40
2023-04-02T20:58:54.592Z,5.30
2023-04-02T21:01:22.855Z,5.30
2023-04-02T21:03:53.333Z,5.20
2023-04-02T21:06:21.267Z,5.20
2023-04-02T21:08:48.476Z,5.20
2023-04-02T21:11:15.917Z,5.10
2023-04-02T21:13:44.013Z,5.10
2023-04-02T21:16:13.133Z,5.00
2023-04-02T21:18:39.720Z,5.00
2023-04-02T21:21:06.651Z,4.90
2023-04-02T21:23:33.371Z,4.80
2023-04-02T21:26:06.015Z,4.80
2023-04-02T21:28:33.485Z,4.70
2023-04-02T21:31:03.476Z,4.70
2023-04-02T21:33:31.134Z,4.70
2023-04-02T21:36:04.781Z,4.60
2023-04-02T21:38:31.421Z,4.60
2023-04-02T21:40:58.019Z,4.50
2023-04-02T21:43:24.574Z,4.50
2023-04-02T21:45:52.013Z,4.50
2023-04-02T21:48:18.879Z,4.50
2023-04-02T21:50:46.163Z,4.50
2023-04-02T21:53:12.746Z,4.50
2023-04-02T21:55:39.330Z,4.50
2023-04-02T21:58:05.873Z,4.40
2023-04-02T22:00:32.451Z,4.30
2023-04-02T22:02:59.051Z,4.30
2023-04-02T22:05:25.716Z,4.20
2023-04-02T22:07:52.278Z,4.20
2023-04-02T22:10:18.829Z,4.20
2023-04-02T22:12:45.482Z,4.10
2023-04-02T22:15:12.065Z,4.10
2023-04-02T22:17:38.726Z,4.10
2023-04-02T22:20:06.398Z,4.00
2023-04-02T22:22:32.977Z,4.00
2023-04-02T22:25:00.502Z,3.90
2023-04-02T22:27:27.128Z,3.90
2023-04-02T22:29:54.234Z,3.80
2023-04-02T22:32:21.106Z,3.80
2023-04-02T22:34:47.807Z,3.80
2023-04-02T22:37:14.390Z,3.80
2023-04-02T22:39:41.224Z,3.80
2023-04-02T22:42:07.787Z,3.70
2023-04-02T22:44:34.347Z,3.70
2023-04-02T22:47:00.921Z,3.70
2023-04-02T22:49:27.524Z,3.60
2023-04-02T22:51:54.099Z,3.60
2023-04-02T22:54:20.762Z,3.60
2023-04-02T22:56:47.387Z,3.50
2023-04-02T22:59:14.101Z,3.50
2023-04-02T23:01:40.985Z,3.50
2023-04-02T23:04:07.900Z,3.40
2023-04-02T23:06:34.496Z,3.50
2023-04-02T23:09:01.087Z,3.40
2023-04-02T23:11:27.838Z,3.30
2023-04-02T23:13:55.369Z,3.40
2023-04-02T23:16:22.546Z,3.30
2023-04-02T23:18:49.709Z,3.30
2023-04-02T23:21:17.027Z,3.20
2023-04-02T23:23:43.665Z,3.20
2023-04-02T23:26:11.340Z,3.10
2023-04-02T23:28:38.581Z,3.10
2023-04-02T23:31:06.644Z,3.00
2023-04-02T23:33:33.917Z,3.00
2023-04-02T23:36:00.699Z,3.00
2023-04-02T23:38:27.307Z,2.90
2023-04-02T23:40:54.008Z,2.90
2023-04-02T23:43:20.674Z,2.90
2023-04-02T23:45:48.600Z,2.90
2023-04-02T23:48:15.365Z,2.90
2023-04-02T23:50:42.164Z,2.80
2023-04-02T23:53:08.815Z,2.80
2023-04-02T23:55:35.387Z,2.80
2023-04-02T23:58:01.959Z,2.70
